createdAt,value
2023-02-06T00:01:10.646Z,77.76
2023-02-06T00:05:22.207Z,77.51
2023-02-06T00:09:29.587Z,77.51
2023-02-06T00:13:37.805Z,77.32
2023-02-06T00:17:45.525Z,77.21
2023-02-06T00:21:53.235Z,77.16
2023-02-06T00:26:02.027Z,77.19
2023-02-06T00:30:11.196Z,77.26
2023-02-06T00:34:18.947Z,77.13
2023-02-06T00:38:26.306Z,77.25
2023-02-06T00:42:33.635Z,77.10
2023-02-06T00:46:42.204Z,77.37
2023-02-06T00:50:51.237Z,77.69
2023-02-06T00:54:58.926Z,77.76
2023-02-06T00:59:06.618Z,77.69
2023-02-06T01:03:14.158Z,77.66
2023-02-06T01:07:21.501Z,77.66
2023-02-06T01:11:29.103Z,77.43
2023-02-06T01:15:36.811Z,77.36
2023-02-06T01:19:44.710Z,77.53
2023-02-06T01:23:53.565Z,77.83
2023-02-06T01:28:02.362Z,77.85
2023-02-06T01:32:09.873Z,77.97
2023-02-06T01:36:18.569Z,77.97
2023-02-06T01:40:26.598Z,78.36
2023-02-06T01:44:36.680Z,78.45
2023-02-06T01:48:46.205Z,78.44
2023-02-06T01:52:54.679Z,78.42
2023-02-06T01:57:04.872Z,78.36
2023-02-06T02:01:12.450Z,78.49
2023-02-06T02:05:21.106Z,78.42
2023-02-06T02:09:29.383Z,78.23
2023-02-06T02:13:38.466Z,78.36
2023-02-06T02:17:53.827Z,78.20
2023-02-06T02:22:19.641Z,78.30
2023-02-06T02:26:58.257Z,78.39
2023-02-06T02:31:24.414Z,78.31
2023-02-06T02:35:37.773Z,78.69
2023-02-06T02:39:48.801Z,78.87
2023-02-06T02:44:00.122Z,78.75
2023-02-06T02:48:10.464Z,78.67
2023-02-06T02:52:19.786Z,78.79
2023-02-06T02:56:30.106Z,78.82
2023-02-06T03:00:41.196Z,78.67
2023-02-06T03:04:51.456Z,78.99
2023-02-06T03:09:05.006Z,78.88
2023-02-06T03:13:17.690Z,78.82
2023-02-06T03:17:32.779Z,79.12
2023-02-06T03:21:42.600Z,79.16
2023-02-06T03:25:52.738Z,79.01
2023-02-06T03:30:02.162Z,78.98
2023-02-06T03:34:13.697Z,79.01
2023-02-06T03:38:21.462Z,79.00
2023-02-06T03:42:30.320Z,79.19
2023-02-06T03:46:39.774Z,79.06
2023-02-06T03:50:50.358Z,79.49
2023-02-06T03:55:02.596Z,79.58
2023-02-06T03:59:11.123Z,79.63
2023-02-06T04:03:20.114Z,79.87
2023-02-06T04:07:29.060Z,79.73
2023-02-06T04:11:36.989Z,79.54
2023-02-06T04:15:44.626Z,79.66
2023-02-06T04:19:52.164Z,79.59
2023-02-06T04:24:00.869Z,79.69
2023-02-06T04:28:09.215Z,79.68
2023-02-06T04:32:17.131Z,80.13
2023-02-06T04:36:24.733Z,80.25
2023-02-06T04:40:32.247Z,80.46
2023-02-06T04:44:40.647Z,80.86
2023-02-06T04:48:48.343Z,80.66
2023-02-06T04:52:55.935Z,80.65
2023-02-06T04:57:05.077Z,80.65
2023-02-06T05:01:12.743Z,80.66
2023-02-06T05:05:20.530Z,80.53
2023-02-06T05:09:28.570Z,80.52
2023-02-06T05:13:36.967Z,80.31
2023-02-06T05:17:45.822Z,80.27
2023-02-06T05:21:57.103Z,80.17
2023-02-06T05:26:06.128Z,80.19
2023-02-06T05:30:15.770Z,80.01
2023-02-06T05:34:23.581Z,79.91
2023-02-06T05:38:31.388Z,79.88
2023-02-06T05:42:39.010Z,79.59
2023-02-06T05:46:48.620Z,79.74
2023-02-06T05:50:56.567Z,79.71
2023-02-06T05:55:04.329Z,79.83
2023-02-06T05:59:12.134Z,79.76
2023-02-06T06:03:19.496Z,79.62
2023-02-06T06:07:26.799Z,79.54
2023-02-06T06:11:34.697Z,79.79
2023-02-06T06:15:42.447Z,79.86
2023-02-06T06:19:50.434Z,79.97
2023-02-06T06:23:58.444Z,79.55
2023-02-06T06:28:06.714Z,79.89
2023-02-06T06:32:14.085Z,79.92
2023-02-06T06:36:21.556Z,79.91
2023-02-06T06:40:29.783Z,79.80
2023-02-06T06:44:37.492Z,79.82
2023-02-06T06:48:45.727Z,79.78
2023-02-06T06:52:53.526Z,79.99
2023-02-06T06:57:01.259Z,79.84
2023-02-06T07:01:10.097Z,79.65
2023-02-06T07:05:17.913Z,79.75
2023-02-06T07:09:25.824Z,79.78
2023-02-06T07:13:33.423Z,79.48
2023-02-06T07:17:41.045Z,79.51
2023-02-06T07:21:59.222Z,79.47
2023-02-06T07:26:08.331Z,79.39
2023-02-06T07:30:24.203Z,79.78
2023-02-06T07:34:39.161Z,79.81
2023-02-06T07:38:48.440Z,80.01
2023-02-06T07:43:00.402Z,79.88
2023-02-06T07:47:15.539Z,79.75
2023-02-06T07:51:27.997Z,79.61
2023-02-06T07:55:38.557Z,79.73
2023-02-06T07:59:46.403Z,79.57
2023-02-06T08:04:04.424Z,79.03
2023-02-06T08:08:18.895Z,78.99
2023-02-06T08:12:27.039Z,78.65
2023-02-06T08:16:34.662Z,78.38
2023-02-06T08:20:45.319Z,78.16
2023-02-06T08:24:55.524Z,77.85
2023-02-06T08:29:14.565Z,77.45
2023-02-06T08:33:23.527Z,77.25
2023-02-06T08:37:34.961Z,76.95
2023-02-06T08:41:46.451Z,76.90
2023-02-06T08:45:56.224Z,76.22
2023-02-06T08:50:07.697Z,75.68
2023-02-06T08:54:17.609Z,75.18
2023-02-06T08:58:30.170Z,74.65
2023-02-06T09:02:40.018Z,74.07
2023-02-06T09:06:49.306Z,73.57
2023-02-06T09:10:57.856Z,73.22
2023-02-06T09:15:07.017Z,72.52
2023-02-06T09:19:16.504Z,72.25
2023-02-06T09:23:24.463Z,72.22
2023-02-06T09:27:32.266Z,71.74
2023-02-06T09:31:41.448Z,70.74
2023-02-06T09:35:49.447Z,69.68
2023-02-06T09:39:56.841Z,68.99
2023-02-06T09:44:13.018Z,68.80
2023-02-06T09:48:24.213Z,68.43
2023-02-06T09:52:53.420Z,68.93
2023-02-06T09:57:06.018Z,68.19
2023-02-06T10:01:20.656Z,67.82
2023-02-06T10:05:35.014Z,67.45
2023-02-06T10:09:45.466Z,67.58
2023-02-06T10:13:55.776Z,67.47
2023-02-06T10:18:09.331Z,67.55
2023-02-06T10:22:21.461Z,67.14
2023-02-06T10:26:31.013Z,67.18
2023-02-06T10:31:01.804Z,66.14
2023-02-06T10:35:33.502Z,66.15
2023-02-06T10:39:53.013Z,66.40
2023-02-06T10:44:04.110Z,66.13
2023-02-06T10:48:18.328Z,65.90
2023-02-06T10:52:28.582Z,66.28
2023-02-06T10:56:41.033Z,65.95
2023-02-06T11:00:49.499Z,66.02
2023-02-06T11:05:05.429Z,66.35
2023-02-06T11:09:13.453Z,66.26
2023-02-06T11:13:28.658Z,66.16
2023-02-06T11:17:39.339Z,65.93
2023-02-06T11:21:56.524Z,65.51
2023-02-06T11:26:14.390Z,65.56
2023-02-06T11:30:38.319Z,65.44
2023-02-06T11:34:54.906Z,65.29
2023-02-06T11:39:06.218Z,65.12
2023-02-06T11:43:22.821Z,65.06
2023-02-06T11:47:35.049Z,65.31
2023-02-06T11:51:52.977Z,64.66
2023-02-06T11:56:06.527Z,64.45
2023-02-06T12:00:24.856Z,64.52
2023-02-06T12:04:35.683Z,64.33
2023-02-06T12:08:52.576Z,64.64
2023-02-06T12:13:06.485Z,64.28
2023-02-06T12:17:21.972Z,64.60
2023-02-06T12:21:36.566Z,64.76
2023-02-06T12:25:44.984Z,64.90
2023-02-06T12:30:03.319Z,65.03
2023-02-06T12:34:18.585Z,64.98
2023-02-06T12:38:32.066Z,64.65
2023-02-06T12:42:43.240Z,65.09
2023-02-06T12:46:56.739Z,65.05
2023-02-06T12:51:11.570Z,64.56
2023-02-06T12:55:24.260Z,64.06
2023-02-06T12:59:58.167Z,64.37
2023-02-06T13:04:16.049Z,64.64
2023-02-06T13:08:26.888Z,64.42
2023-02-06T13:12:35.675Z,63.92
2023-02-06T13:16:51.716Z,63.96
2023-02-06T13:21:19.463Z,64.21
2023-02-06T13:25:55.802Z,64.44
2023-02-06T13:30:42.707Z,64.39
2023-02-06T13:34:57.699Z,64.39
2023-02-06T13:39:24.398Z,64.69
2023-02-06T13:43:32.459Z,64.51
2023-02-06T13:48:07.255Z,64.19
2023-02-06T13:52:19.979Z,64.41
2023-02-06T13:56:45.724Z,64.07
2023-02-06T14:00:54.875Z,64.14
2023-02-06T14:05:03.641Z,64.51
2023-02-06T14:09:30.792Z,64.53
2023-02-06T14:13:59.261Z,64.53
2023-02-06T14:18:29.532Z,64.69
2023-02-06T14:22:43.734Z,65.14
2023-02-06T14:27:01.138Z,65.47
2023-02-06T14:31:16.557Z,65.31
2023-02-06T14:35:47.510Z,65.56
2023-02-06T14:39:56.091Z,65.38
2023-02-06T14:44:03.857Z,65.69
2023-02-06T14:48:22.276Z,65.83
2023-02-06T14:52:31.234Z,65.90
2023-02-06T14:56:40.625Z,65.86
2023-02-06T15:00:49.116Z,66.10
2023-02-06T15:04:56.957Z,66.06
2023-02-06T15:09:06.477Z,66.07
2023-02-06T15:13:24.277Z,66.36
2023-02-06T15:17:34.273Z,66.65
2023-02-06T15:21:44.361Z,66.81
2023-02-06T15:26:00.953Z,66.57
2023-02-06T15:30:19.692Z,66.71
2023-02-06T15:34:28.554Z,66.72
2023-02-06T15:38:37.484Z,66.57
2023-02-06T15:42:45.965Z,66.71
2023-02-06T15:46:57.544Z,66.93
2023-02-06T15:51:17.971Z,67.08
2023-02-06T15:55:28.261Z,67.29
2023-02-06T15:59:38.289Z,67.36
2023-02-06T16:03:46.505Z,66.93
2023-02-06T16:07:59.641Z,66.82
2023-02-06T16:12:07.866Z,66.85
2023-02-06T16:16:24.761Z,66.77
2023-02-06T16:20:40.314Z,66.53
2023-02-06T16:24:50.464Z,66.11
2023-02-06T16:29:02.831Z,65.75
2023-02-06T16:33:21.749Z,65.87
2023-02-06T16:37:32.612Z,65.87
2023-02-06T16:41:42.874Z,66.07
2023-02-06T16:45:50.951Z,66.16
2023-02-06T16:49:59.302Z,66.20
2023-02-06T16:54:09.627Z,66.22
2023-02-06T16:58:20.475Z,66.20
2023-02-06T17:02:29.898Z,66.38
2023-02-06T17:06:39.071Z,66.56
2023-02-06T17:10:47.349Z,66.74
2023-02-06T17:14:56.294Z,66.63
2023-02-06T17:19:04.137Z,66.77
2023-02-06T17:23:22.402Z,66.63
2023-02-06T17:27:30.525Z,66.48
2023-02-06T17:31:38.816Z,66.69
2023-02-06T17:35:46.305Z,67.01
2023-02-06T17:39:55.756Z,67.10
2023-02-06T17:44:03.888Z,67.47
2023-02-06T17:48:12.111Z,67.94
2023-02-06T17:52:21.940Z,68.14
2023-02-06T17:56:30.115Z,68.13
2023-02-06T18:00:38.874Z,68.48
2023-02-06T18:04:48.907Z,69.17
2023-02-06T18:08:56.255Z,69.46
2023-02-06T18:13:04.109Z,69.35
2023-02-06T18:17:13.213Z,69.71
2023-02-06T18:21:25.278Z,69.66
2023-02-06T18:25:33.168Z,69.72
2023-02-06T18:29:49.684Z,69.98
2023-02-06T18:33:58.936Z,70.38
2023-02-06T18:38:10.083Z,70.61
2023-02-06T18:42:35.596Z,70.75
2023-02-06T18:46:44.084Z,70.74
2023-02-06T18:50:52.423Z,71.18
2023-02-06T18:55:00.253Z,71.18
2023-02-06T18:59:08.966Z,71.14
2023-02-06T19:03:17.467Z,71.29
2023-02-06T19:07:25.203Z,71.78
2023-02-06T19:11:33.126Z,71.51
2023-02-06T19:15:41.519Z,71.92
2023-02-06T19:19:49.826Z,72.18
2023-02-06T19:23:59.674Z,72.53
2023-02-06T19:28:07.944Z,73.01
2023-02-06T19:32:17.298Z,73.30
2023-02-06T19:36:26.486Z,73.13
2023-02-06T19:40:35.800Z,73.05
2023-02-06T19:44:45.092Z,73.40
2023-02-06T19:48:54.177Z,73.57
2023-02-06T19:53:02.309Z,74.00
2023-02-06T19:57:10.261Z,73.79
2023-02-06T20:01:19.595Z,73.87
2023-02-06T20:05:28.181Z,74.04
2023-02-06T20:09:36.736Z,73.96
2023-02-06T20:13:44.592Z,73.84
2023-02-06T20:17:53.901Z,73.89
2023-02-06T20:22:04.570Z,74.44
2023-02-06T20:26:12.725Z,74.71
2023-02-06T20:30:22.455Z,75.07
2023-02-06T20:34:31.326Z,75.49
2023-02-06T20:38:41.679Z,76.00
2023-02-06T20:42:49.540Z,76.10
2023-02-06T20:46:57.475Z,75.71
2023-02-06T20:51:07.690Z,75.70
2023-02-06T20:55:15.418Z,75.57
2023-02-06T20:59:24.550Z,75.42
2023-02-06T21:03:32.243Z,75.17
2023-02-06T21:07:40.745Z,75.07
2023-02-06T21:11:50.505Z,75.02
2023-02-06T21:15:59.773Z,75.01
2023-02-06T21:20:10.051Z,74.90
2023-02-06T21:24:19.481Z,74.96
2023-02-06T21:28:27.864Z,74.95
2023-02-06T21:32:35.621Z,75.17
2023-02-06T21:36:44.089Z,75.44
2023-02-06T21:40:51.976Z,75.66
2023-02-06T21:44:59.730Z,75.69
2023-02-06T21:49:09.420Z,75.64
2023-02-06T21:53:17.392Z,75.65
2023-02-06T21:57:24.948Z,75.39
2023-02-06T22:01:35.161Z,75.53
2023-02-06T22:05:43.315Z,75.50
2023-02-06T22:09:50.934Z,75.85
2023-02-06T22:14:01.576Z,75.95
2023-02-06T22:18:10.754Z,76.14
2023-02-06T22:22:19.685Z,76.45
2023-02-06T22:26:28.092Z,76.50
2023-02-06T22:30:36.839Z,76.35
2023-02-06T22:34:44.897Z,76.40
2023-02-06T22:38:56.797Z,76.26
2023-02-06T22:43:04.872Z,76.29
2023-02-06T22:47:13.353Z,76.47
2023-02-06T22:51:21.397Z,76.63
2023-02-06T22:55:49.922Z,76.70
2023-02-06T22:59:58.069Z,76.82
2023-02-06T23:04:09.468Z,76.88
2023-02-06T23:08:19.493Z,77.20
2023-02-06T23:12:28.029Z,77.27
2023-02-06T23:16:38.942Z,77.28
2023-02-06T23:20:46.970Z,77.13
2023-02-06T23:24:56.882Z,77.11
2023-02-06T23:29:06.366Z,77.18
2023-02-06T23:33:14.550Z,77.25
2023-02-06T23:37:22.356Z,77.71
2023-02-06T23:41:30.702Z,77.72
2023-02-06T23:45:41.445Z,77.43
2023-02-06T23:49:49.736Z,77.22
2023-02-06T23:53:57.493Z,77.01
2023-02-06T23:58:06.406Z,76.78
